Time;durP1;ratioP1;P1;durP2;ratioP2;P2;SDS_P1;SDS_P2;PMS_P1;PMS_P2;Temp;Humidity;BMP_temperature;BMP_pressure;BME280_temperature;BME280_humidity;BME280_pressure;Samples;Min_cycle;Max_cycle;Signal;HPM_P1;HPM_P2
2022/08/04 00:01:21;;;;;;;1999.90;999.90;;;;;;;21.24;100.00;95126.34;5097817;28;20186;-61
2022/08/04 00:04:25;;;;;;;1999.90;999.90;;;;;;;21.21;100.00;95121.00;5098794;28;20270;-60
2022/08/04 00:06:59;;;;;;;1999.90;999.90;;;;;;;21.13;100.00;95117.81;5048606;28;20195;-61
2022/08/04 00:09:43;;;;;;;1999.90;999.90;;;;;;;21.06;100.00;95123.78;5098174;28;20207;-60
2022/08/04 00:12:10;;;;;;;1999.90;999.90;;;;;;;21.08;100.00;95112.19;5097810;28;20219;-63
2022/08/04 00:14:40;;;;;;;1999.90;999.90;;;;;;;21.02;100.00;95117.63;5097727;28;20200;-63
2022/08/04 00:17:07;;;;;;;1999.90;999.90;;;;;;;21.03;100.00;95113.63;5098092;28;20223;-61
2022/08/04 00:19:39;;;;;;;1999.90;999.90;;;;;;;21.03;100.00;95107.28;5114734;28;20184;-66
2022/08/04 00:22:08;;;;;;;1999.90;999.90;;;;;;;20.97;100.00;95118.31;5098258;28;20180;-60
2022/08/04 00:24:34;;;;;;;1999.90;999.90;;;;;;;20.89;100.00;95110.78;5097840;28;20183;-60
2022/08/04 00:27:00;;;;;;;1999.90;999.90;;;;;;;20.85;100.00;95099.88;5097659;28;20187;-59
2022/08/04 00:29:26;;;;;;;1999.90;999.90;;;;;;;20.86;100.00;95095.84;5097583;28;20221;-60
2022/08/04 00:31:54;;;;;;;1999.90;999.90;;;;;;;20.83;100.00;95091.25;5097701;28;20214;-59
2022/08/04 00:34:21;;;;;;;1999.90;999.90;;;;;;;20.81;100.00;95098.53;5097443;28;20199;-60
2022/08/04 00:36:46;;;;;;;1999.90;999.90;;;;;;;20.78;100.00;95089.16;5097260;28;20270;-58
2022/08/04 00:39:14;;;;;;;1999.90;999.90;;;;;;;20.74;100.00;95087.78;5097814;28;20223;-60
2022/08/04 00:41:52;;;;;;;1999.90;999.90;;;;;;;20.72;100.00;95082.72;5097401;28;20190;-59
2022/08/04 00:44:29;;;;;;;1999.90;999.90;;;;;;;20.63;100.00;95080.03;5097731;28;20183;-57
2022/08/04 00:47:13;;;;;;;1999.90;999.90;;;;;;;20.60;100.00;95077.44;5096688;28;20183;-60
2022/08/04 00:49:39;;;;;;;1999.90;999.90;;;;;;;20.54;100.00;95076.56;5097124;28;20194;-57
2022/08/04 00:52:45;;;;;;;1999.90;999.90;;;;;;;20.51;100.00;95069.97;5097172;28;20271;-59
2022/08/04 00:55:26;;;;;;;1999.90;999.90;;;;;;;20.51;100.00;95064.41;5080396;28;20233;-56
2022/08/04 00:58:03;;;;;;;1999.90;999.90;;;;;;;20.40;100.00;95058.63;5097052;28;20187;-58
2022/08/04 01:00:43;;;;;;;1999.90;999.90;;;;;;;20.37;100.00;95059.59;5115240;28;20171;-65
2022/08/04 01:03:23;;;;;;;1999.90;999.90;;;;;;;20.29;100.00;95049.34;5097596;28;20183;-61
2022/08/04 01:06:15;;;;;;;1999.90;999.90;;;;;;;20.25;100.00;95035.63;5097695;28;20203;-61
2022/08/04 01:08:58;;;;;;;1999.90;999.90;;;;;;;20.24;100.00;95034.09;5097018;28;20204;-62
2022/08/04 01:11:54;;;;;;;1999.90;999.90;;;;;;;20.24;100.00;95028.56;5097537;28;20274;-64
2022/08/04 01:14:41;;;;;;;1999.90;999.90;;;;;;;20.18;100.00;95029.69;5096967;28;20206;-62
2022/08/04 01:17:23;;;;;;;1999.90;999.90;;;;;;;20.15;100.00;95031.41;5096600;28;20188;-61
2022/08/04 01:20:06;;;;;;;1999.90;999.90;;;;;;;20.11;100.00;95025.28;5097379;28;20264;-60
2022/08/04 01:22:31;;;;;;;1999.90;999.90;;;;;;;20.12;100.00;95032.34;5096859;28;20206;-62
2022/08/04 01:25:34;;;;;;;1999.90;999.90;;;;;;;20.05;100.00;95031.91;5096778;28;20187;-62
2022/08/04 01:28:18;;;;;;;1999.90;999.90;;;;;;;19.97;100.00;95034.28;5096457;28;20207;-61
2022/08/04 01:30:48;;;;;;;1999.90;999.90;;;;;;;19.92;100.00;95028.63;5097358;28;20296;-63
2022/08/04 01:33:16;;;;;;;1999.90;999.90;;;;;;;19.94;100.00;95031.69;5096654;28;20199;-60
2022/08/04 01:35:54;;;;;;;1999.90;999.90;;;;;;;19.92;100.00;95029.38;5096398;28;20207;-60
2022/08/04 01:38:37;;;;;;;1999.90;999.90;;;;;;;19.82;100.00;95030.69;5096920;28;20240;-60
2022/08/04 01:41:06;;;;;;;1999.90;999.90;;;;;;;19.78;100.00;95024.56;5096401;28;20211;-60
2022/08/04 01:43:41;;;;;;;1999.90;999.90;;;;;;;19.70;100.00;95017.81;5096743;28;20188;-59
2022/08/04 01:46:10;;;;;;;1999.90;999.90;;;;;;;19.73;100.00;95016.88;5096555;28;20179;-59
2022/08/04 01:48:38;;;;;;;1999.90;999.90;;;;;;;19.78;100.00;95021.78;5096467;28;20220;-59
2022/08/04 01:51:07;;;;;;;1999.90;999.90;;;;;;;19.80;100.00;95012.97;5096409;28;20240;-59
2022/08/04 01:53:34;;;;;;;1999.90;999.90;;;;;;;19.80;100.00;95013.75;5096184;28;20196;-60
2022/08/04 01:56:01;;;;;;;1999.90;999.90;;;;;;;19.77;100.00;95017.47;5096268;28;20188;-59
2022/08/04 01:58:32;;;;;;;1999.90;999.90;;;;;;;19.72;100.00;95009.81;5095868;28;20211;-63
2022/08/04 02:01:04;;;;;;;1999.90;999.90;;;;;;;19.66;100.00;95017.22;5096101;28;20195;-59
2022/08/04 02:03:31;;;;;;;1999.90;999.90;;;;;;;19.58;100.00;95009.72;5096815;28;20211;-62
2022/08/04 02:06:22;;;;;;;1999.90;999.90;;;;;;;19.53;100.00;94997.31;5113212;28;20249;-62
2022/08/04 02:09:00;;;;;;;1999.90;999.90;;;;;;;19.50;100.00;94989.94;5095992;28;20208;-61
2022/08/04 02:11:26;;;;;;;1999.90;999.90;;;;;;;19.48;100.00;94984.09;5114297;28;20236;-61
2022/08/04 02:13:53;;;;;;;1999.90;999.90;;;;;;;19.51;100.00;94980.38;5096292;28;20188;-61
2022/08/04 02:16:26;;;;;;;1999.90;999.90;;;;;;;19.52;100.00;94979.91;5095952;28;20237;-61
2022/08/04 02:19:04;;;;;;;1999.90;999.90;;;;;;;19.49;100.00;94980.09;5113919;28;20270;-61
2022/08/04 02:21:31;;;;;;;1999.90;999.90;;;;;;;19.41;100.00;94976.91;5096197;28;20229;-61
2022/08/04 02:24:01;;;;;;;1999.90;999.90;;;;;;;19.37;100.00;94962.47;5096116;28;20176;-63
2022/08/04 02:26:28;;;;;;;1999.90;999.90;;;;;;;19.39;100.00;94970.31;5096025;28;20179;-66
2022/08/04 02:29:02;;;;;;;1999.90;999.90;;;;;;;19.33;100.00;94966.63;5095649;28;20180;-63
2022/08/04 02:31:46;;;;;;;1999.90;999.90;;;;;;;19.28;100.00;94956.22;5096127;28;20184;-63
2022/08/04 02:34:28;;;;;;;1999.90;999.90;;;;;;;19.28;100.00;94956.22;5096222;28;20212;-60
2022/08/04 02:36:54;;;;;;;1999.90;999.90;;;;;;;19.25;100.00;94955.16;5096197;28;20195;-59
2022/08/04 02:39:21;;;;;;;1999.90;999.90;;;;;;;19.27;100.00;94954.69;5095652;28;20191;-60
2022/08/04 02:41:48;;;;;;;1999.90;999.90;;;;;;;19.22;100.00;94946.97;5095905;28;20252;-59
2022/08/04 02:44:20;;;;;;;1999.90;999.90;;;;;;;19.21;100.00;94949.00;5095673;28;20259;-60
2022/08/04 02:46:47;;;;;;;1999.90;999.90;;;;;;;19.22;100.00;94938.66;5095694;28;20231;-59
2022/08/04 02:49:14;;;;;;;1999.90;999.90;;;;;;;19.20;100.00;94943.91;5095487;28;20172;-59
2022/08/04 02:51:41;;;;;;;1999.90;999.90;;;;;;;19.20;100.00;94941.16;5095591;28;20228;-59
2022/08/04 02:54:07;;;;;;;1999.90;999.90;;;;;;;19.17;100.00;94934.53;5095671;28;20249;-58
2022/08/04 02:56:35;;;;;;;1999.90;999.90;;;;;;;19.15;100.00;94939.00;5095502;28;20195;-60
2022/08/04 02:59:09;;;;;;;1999.90;999.90;;;;;;;19.12;100.00;94926.09;5095249;28;20187;-61
2022/08/04 03:01:35;;;;;;;1999.90;999.90;;;;;;;19.10;100.00;94925.81;5096127;28;20195;-64
2022/08/04 03:04:35;;;;;;;1999.90;999.90;;;;;;;19.06;100.00;94920.44;5095882;28;20286;-61
2022/08/04 03:07:28;;;;;;;1999.90;999.90;;;;;;;19.06;100.00;94914.16;5095865;28;20227;-64
2022/08/04 03:10:15;;;;;;;1999.90;999.90;;;;;;;19.00;100.00;94908.50;5095534;28;20241;-59
2022/08/04 03:13:16;;;;;;;1999.90;999.90;;;;;;;18.91;100.00;94907.78;5099206;28;20211;-59
2022/08/04 03:15:59;;;;;;;1999.90;999.90;;;;;;;18.84;100.00;94897.03;5099108;28;20302;-58
2022/08/04 03:18:33;;;;;;;1999.90;999.90;;;;;;;18.81;100.00;94887.69;5099026;28;20184;-57
2022/08/04 03:21:15;;;;;;;1999.90;999.90;;;;;;;18.75;100.00;94886.00;5099101;28;20216;-59
2022/08/04 03:24:10;;;;;;;1999.90;999.90;;;;;;;18.74;100.00;94881.72;5098510;28;20233;-60
2022/08/04 03:26:39;;;;;;;1999.90;999.90;;;;;;;18.76;100.00;94868.19;5098502;28;20188;-63
2022/08/04 03:29:29;;;;;;;1999.90;999.90;;;;;;;18.79;100.00;94870.00;5098625;28;20275;-59
2022/08/04 03:32:15;;;;;;;1999.90;999.90;;;;;;;18.79;100.00;94878.28;5116444;28;20178;-59
2022/08/04 03:35:18;;;;;;;1999.90;999.90;;;;;;;18.82;100.00;94877.34;5099135;28;20203;-59
2022/08/04 03:38:05;;;;;;;1999.90;999.90;;;;;;;18.79;100.00;94883.81;5098252;28;20278;-59
2022/08/04 03:40:56;;;;;;;1999.90;999.90;;;;;;;18.76;100.00;94873.72;5098269;28;20214;-59
2022/08/04 03:43:53;;;;;;;1999.90;999.90;;;;;;;18.76;100.00;94868.19;5098041;28;20192;-61
2022/08/04 03:46:18;;;;;;;1999.90;999.90;;;;;;;18.77;100.00;94887.09;5098663;28;20195;-59
2022/08/04 03:48:52;;;;;;;1999.90;999.90;;;;;;;18.76;100.00;94884.78;5098426;28;20196;-58
2022/08/04 03:55:01;;;;;;;1999.90;999.90;;;;;;;18.77;100.00;94876.03;5097948;28;20296;-60
2022/08/04 03:57:27;;;;;;;1999.90;999.90;;;;;;;18.78;100.00;94874.00;5098588;28;20194;-60
2022/08/04 04:00:17;;;;;;;1999.90;999.90;;;;;;;18.80;100.00;94879.84;5098490;28;20180;-58
2022/08/04 04:03:19;;;;;;;1999.90;999.90;;;;;;;18.85;100.00;94879.19;5098314;28;20324;-61
2022/08/04 04:06:15;;;;;;;1999.90;999.90;;;;;;;19.05;100.00;94890.47;5098351;28;20206;-62
2022/08/04 04:09:00;;;;;;;1999.90;999.90;;;;;;;19.32;100.00;94920.78;5098622;28;20208;-63
2022/08/04 04:11:47;;;;;;;1999.90;999.90;;;;;;;19.62;100.00;94932.78;5097731;28;20190;-62
2022/08/04 04:14:34;;;;;;;1999.90;999.90;;;;;;;19.98;100.00;94972.03;5098391;28;20223;-65
2022/08/04 04:17:18;;;;;;;1999.90;999.90;;;;;;;20.26;100.00;94987.25;5097894;28;20191;-64
2022/08/04 04:19:59;;;;;;;1999.90;999.90;;;;;;;20.71;100.00;95014.56;5098179;28;20232;-61
2022/08/04 04:22:33;;;;;;;1999.90;999.90;;;;;;;21.08;100.00;95051.06;5097381;28;20183;-59
2022/08/04 04:25:03;;;;;;;1999.90;999.90;;;;;;;21.31;100.00;95075.97;5097916;28;20201;-58
2022/08/04 04:28:06;;;;;;;1999.90;999.90;;;;;;;21.63;100.00;95088.88;5097879;28;20180;-59
2022/08/04 04:30:46;;;;;;;1999.90;999.90;;;;;;;22.11;100.00;95117.94;5098433;28;20267;-58
2022/08/04 04:33:33;;;;;;;1999.90;999.90;;;;;;;22.54;100.00;95134.97;5097311;28;20187;-61
2022/08/04 04:36:22;;;;;;;1999.90;999.90;;;;;;;22.80;100.00;95152.50;5097788;28;20211;-58
2022/08/04 04:39:02;;;;;;;1999.90;999.90;;;;;;;22.93;100.00;95166.84;5097708;28;20198;-61
2022/08/04 04:41:49;;;;;;;1999.90;999.90;;;;;;;22.94;100.00;95173.97;5097802;28;20206;-63
2022/08/04 04:44:43;;;;;;;1999.90;999.90;;;;;;;23.08;100.00;95173.13;5097347;28;20187;-63
2022/08/04 04:47:20;;;;;;;1999.90;999.90;;;;;;;22.98;100.00;95180.09;5097726;28;20195;-64
2022/08/04 04:50:13;;;;;;;1999.90;999.90;;;;;;;23.24;100.00;95190.06;5097639;28;20191;-62
2022/08/04 04:52:48;;;;;;;1999.90;999.90;;;;;;;23.22;100.00;95194.56;5097134;28;20180;-63
2022/08/04 04:55:25;;;;;;;1999.90;999.90;;;;;;;23.28;100.00;95198.19;5097731;28;20207;-69
2022/08/04 04:57:54;;;;;;;1999.90;999.90;;;;;;;23.10;100.00;95206.81;5097182;28;20222;-58
2022/08/04 05:00:20;;;;;;;1999.90;999.90;;;;;;;23.32;100.00;95198.72;5097183;28;20315;-60
2022/08/04 05:03:14;;;;;;;1999.90;999.90;;;;;;;23.60;100.00;95219.31;5097021;28;20183;-62
2022/08/04 05:06:28;;;;;;;1999.90;999.90;;;;;;;24.09;100.00;95227.38;5097065;28;20183;-62
2022/08/04 05:09:12;;;;;;;1999.90;999.90;;;;;;;24.75;100.00;95239.06;5096779;28;20235;-69
2022/08/04 05:11:46;;;;;;;1999.90;999.90;;;;;;;25.24;100.00;95256.06;5097256;28;20218;-64
2022/08/04 05:14:40;;;;;;;1999.90;999.90;;;;;;;25.67;100.00;95256.75;5096986;28;20213;-67
2022/08/04 05:17:25;;;;;;;1999.90;999.90;;;;;;;26.02;100.00;95259.91;5091043;28;20215;-61
2022/08/04 05:20:05;;;;;;;1999.90;999.90;;;;;;;26.31;100.00;95261.44;5114756;28;20219;-67
2022/08/04 05:22:36;;;;;;;1999.90;999.90;;;;;;;26.63;97.58;95271.94;5096749;28;20184;-66
2022/08/04 05:25:07;;;;;;;1999.90;999.90;;;;;;;26.91;95.43;95267.03;5097218;28;20278;-65
2022/08/04 05:27:39;;;;;;;1999.90;999.90;;;;;;;27.48;89.74;95269.16;5096469;28;20195;-67
2022/08/04 05:30:06;;;;;;;1999.90;999.90;;;;;;;27.87;87.87;95272.59;5097045;28;20183;-64
2022/08/04 05:32:57;;;;;;;1999.90;999.90;;;;;;;28.64;82.21;95271.28;5096503;28;20208;-65
2022/08/04 05:35:42;;;;;;;1999.90;999.90;;;;;;;28.98;79.14;95270.44;5113592;28;20256;-70
2022/08/04 05:38:10;;;;;;;1999.90;999.90;;;;;;;29.33;78.07;95270.34;5096367;28;20188;-61
2022/08/04 05:40:38;;;;;;;1999.90;999.90;;;;;;;30.12;74.53;95271.63;5096990;28;20183;-60
2022/08/04 05:43:05;;;;;;;1999.90;999.90;;;;;;;30.12;74.90;95272.38;5096486;28;20194;-65
2022/08/04 05:45:34;;;;;;;1999.90;999.90;;;;;;;30.25;72.45;95275.31;5096092;28;20183;-61
2022/08/04 05:48:05;;;;;;;1999.90;999.90;;;;;;;30.30;71.61;95276.53;5096171;28;20254;-63
2022/08/04 05:50:32;;;;;;;1999.90;999.90;;;;;;;30.28;71.50;95284.75;5096405;28;20179;-61
2022/08/04 05:52:58;;;;;;;1999.90;999.90;;;;;;;30.92;68.82;95275.00;5096226;28;20271;-65
2022/08/04 05:55:24;;;;;;;1999.90;999.90;;;;;;;31.93;63.52;95281.78;5096204;28;20252;-62
2022/08/04 05:57:51;;;;;;;1999.90;999.90;;;;;;;32.29;60.73;95274.28;5096261;28;20197;-65
2022/08/04 06:00:17;;;;;;;1999.90;999.90;;;;;;;32.52;60.82;95275.28;5096209;28;20184;-65
2022/08/04 06:02:46;;;;;;;1999.90;999.90;;;;;;;33.07;58.59;95268.25;5095989;28;20224;-62
2022/08/04 06:05:13;;;;;;;1999.90;999.90;;;;;;;33.36;56.97;95269.09;5096057;28;20183;-63
2022/08/04 06:07:39;;;;;;;1999.90;999.90;;;;;;;33.05;57.28;95264.47;5096124;28;20188;-64
2022/08/04 06:10:06;;;;;;;1999.90;999.90;;;;;;;32.94;56.95;95271.19;5095943;28;20300;-64
2022/08/04 06:12:37;;;;;;;1999.90;999.90;;;;;;;33.13;56.58;95271.72;5095905;28;20179;-71
2022/08/04 06:15:03;;;;;;;1999.90;999.90;;;;;;;33.63;55.98;95271.13;5096375;28;20206;-62
2022/08/04 06:17:33;;;;;;;1999.90;999.90;;;;;;;33.88;54.53;95265.03;5096179;28;20187;-68
2022/08/04 06:20:01;;;;;;;1999.90;999.90;;;;;;;34.14;53.74;95271.19;5095930;28;20179;-68
2022/08/04 06:22:29;;;;;;;1999.90;999.90;;;;;;;33.92;54.08;95276.78;5095963;28;20186;-69
2022/08/04 06:24:57;;;;;;;1999.90;999.90;;;;;;;33.65;53.86;95277.00;5095794;28;20214;-68
2022/08/04 06:27:23;;;;;;;1999.90;999.90;;;;;;;33.89;52.85;95283.59;5095743;28;20216;-66
2022/08/04 06:29:50;;;;;;;1999.90;999.90;;;;;;;33.72;54.18;95284.03;5096244;28;20179;-61
2022/08/04 06:32:26;;;;;;;1999.90;999.90;;;;;;;34.15;53.23;95283.31;5113746;28;20203;-60
2022/08/04 06:34:58;;;;;;;1999.90;999.90;;;;;;;34.97;48.80;95277.09;5096004;28;20248;-63
2022/08/04 06:37:25;;;;;;;1999.90;999.90;;;;;;;35.37;48.13;95280.88;5095608;28;20219;-65
2022/08/04 06:39:52;;;;;;;1999.90;999.90;;;;;;;35.89;46.70;95274.34;5113632;28;20184;-70
2022/08/04 06:42:21;;;;;;;1999.90;999.90;;;;;;;36.57;44.67;95272.72;5095683;28;20187;-65
2022/08/04 06:44:50;;;;;;;1999.90;999.90;;;;;;;37.03;43.63;95270.34;5095465;28;20236;-66
2022/08/04 06:47:20;;;;;;;1999.90;999.90;;;;;;;37.04;42.30;95271.88;5099136;28;20179;-68
2022/08/04 06:49:48;;;;;;;1999.90;999.90;;;;;;;37.22;41.71;95273.47;5099008;28;20176;-61
2022/08/04 06:52:16;;;;;;;1999.90;999.90;;;;;;;37.25;42.39;95275.13;5098840;28;20183;-64
2022/08/04 06:54:50;;;;;;;1999.90;999.90;;;;;;;37.27;41.33;95278.16;5098904;28;20210;-67
2022/08/04 06:57:20;;;;;;;1999.90;999.90;;;;;;;37.95;40.88;95274.63;5099019;28;20187;-62
2022/08/04 06:59:50;;;;;;;1999.90;999.90;;;;;;;38.23;39.16;95277.72;5098749;28;20180;-64
2022/08/04 07:02:22;;;;;;;1999.90;999.90;;;;;;;37.85;39.89;95271.72;5098941;28;20203;-62
2022/08/04 07:04:48;;;;;;;1999.90;999.90;;;;;;;37.64;40.66;95282.00;5099001;28;20253;-66
2022/08/04 07:07:15;;;;;;;1999.90;999.90;;;;;;;37.37;41.58;95281.88;5098701;28;20180;-67
2022/08/04 07:09:40;;;;;;;1999.90;999.90;;;;;;;37.47;41.15;95279.84;5098588;28;20195;-60
2022/08/04 07:12:07;;;;;;;1999.90;999.90;;;;;;;38.17;39.06;95277.25;5098869;28;20180;-60
2022/08/04 07:14:36;;;;;;;1999.90;999.90;;;;;;;39.43;36.89;95278.09;5098890;28;20286;-60
2022/08/04 07:17:04;;;;;;;1999.90;999.90;;;;;;;39.04;36.71;95282.91;5098392;28;20298;-59
2022/08/04 07:19:31;;;;;;;1999.90;999.90;;;;;;;39.62;35.64;95274.53;5098558;28;20176;-65
2022/08/04 07:21:59;;;;;;;1999.90;999.90;;;;;;;39.38;36.18;95275.53;5098578;28;20195;-60
2022/08/04 07:24:33;;;;;;;1999.90;999.90;;;;;;;40.20;34.42;95273.25;5098910;28;20191;-62
2022/08/04 07:26:59;;;;;;;1999.90;999.90;;;;;;;40.88;33.42;95278.28;5099096;28;20172;-59
2022/08/04 07:29:25;;;;;;;1999.90;999.90;;;;;;;40.93;33.59;95280.81;5098898;28;20191;-62
2022/08/04 07:31:52;;;;;;;1999.90;999.90;;;;;;;40.96;32.91;95282.47;5098767;28;20264;-62
2022/08/04 07:34:19;;;;;;;1999.90;999.90;;;;;;;40.84;32.18;95284.50;5098370;28;20202;-62
2022/08/04 07:36:45;;;;;;;1999.90;999.90;;;;;;;40.86;31.92;95272.41;5098333;28;20247;-60
2022/08/04 07:39:10;;;;;;;1999.90;999.90;;;;;;;41.09;31.28;95282.00;5098637;28;20220;-63
2022/08/04 07:41:36;;;;;;;1999.90;999.90;;;;;;;41.25;30.61;95293.88;5098342;28;20183;-65
2022/08/04 07:44:02;;;;;;;1999.90;999.90;;;;;;;41.47;30.35;95281.13;5097957;28;20195;-61
2022/08/04 07:46:28;;;;;;;1999.90;999.90;;;;;;;41.23;30.97;95290.84;5098521;28;20198;-58
2022/08/04 07:48:54;;;;;;;1999.90;999.90;;;;;;;41.87;30.43;95283.88;5098205;28;20172;-60
2022/08/04 07:51:20;;;;;;;1999.90;999.90;;;;;;;42.38;29.46;95280.16;5098170;28;20184;-59
2022/08/04 07:53:46;;;;;;;1999.90;999.90;;;;;;;42.66;28.87;95275.53;5098590;28;20201;-59
2022/08/04 07:56:14;;;;;;;1999.90;999.90;;;;;;;42.39;28.80;95275.94;5115598;28;20208;-64
2022/08/04 07:58:40;;;;;;;1999.90;999.90;;;;;;;42.65;28.66;95274.03;5097321;28;20215;-58
2022/08/04 08:01:05;;;;;;;1999.90;999.90;;;;;;;42.28;29.10;95270.13;5098065;28;20215;-61
2022/08/04 08:03:31;;;;;;;1999.90;999.90;;;;;;;42.61;28.87;95271.63;5098014;28;20206;-61
2022/08/04 08:05:56;;;;;;;1999.90;999.90;;;;;;;41.70;29.43;95275.53;5098203;28;20291;-62
2022/08/04 08:08:22;;;;;;;1999.90;999.90;;;;;;;40.65;31.49;95280.91;5098235;28;20176;-64
2022/08/04 08:10:47;;;;;;;1999.90;999.90;;;;;;;40.79;30.50;95276.19;5115805;28;20236;-63
2022/08/04 08:13:15;;;;;;;1999.90;999.90;;;;;;;41.24;30.58;95270.16;5097797;28;20179;-61
2022/08/04 08:15:42;;;;;;;1999.90;999.90;;;;;;;42.60;28.60;95272.97;5098080;28;20203;-65
2022/08/04 08:18:08;;;;;;;1999.90;999.90;;;;;;;42.10;29.46;95272.53;5097311;28;20183;-71
2022/08/04 08:20:33;;;;;;;1999.90;999.90;;;;;;;42.14;29.62;95278.53;5097627;28;20198;-62
2022/08/04 08:23:00;;;;;;;1999.90;999.90;;;;;;;43.00;28.60;95275.59;5098185;28;20184;-65
2022/08/04 08:25:26;;;;;;;1999.90;999.90;;;;;;;41.68;29.95;95281.13;5097926;28;20184;-72
2022/08/04 08:27:51;;;;;;;1999.90;999.90;;;;;;;42.38;29.03;95280.16;5097531;28;20256;-63
2022/08/04 08:30:17;;;;;;;1999.90;999.90;;;;;;;42.85;28.34;95270.31;5097390;28;20179;-66
2022/08/04 08:32:42;;;;;;;1999.90;999.90;;;;;;;43.12;28.05;95270.66;5097397;28;20179;-66
2022/08/04 08:35:08;;;;;;;1999.90;999.90;;;;;;;42.62;28.76;95275.25;5097926;28;20291;-65
2022/08/04 08:37:37;;;;;;;1999.90;999.90;;;;;;;42.54;27.92;95275.47;5097195;28;20199;-71
2022/08/04 08:40:22;;;;;;;1999.90;999.90;;;;;;;42.23;29.09;95269.06;5097737;28;20252;-63
2022/08/04 08:43:10;;;;;;;1999.90;999.90;;;;;;;42.73;27.82;95275.31;5098104;28;20191;-62
2022/08/04 08:46:09;;;;;;;1999.90;999.90;;;;;;;43.71;26.84;95264.25;5097415;28;20233;-60
2022/08/04 08:48:53;;;;;;;1999.90;999.90;;;;;;;43.68;27.11;95261.88;5096886;28;20185;-60
2022/08/04 08:51:37;;;;;;;1999.90;999.90;;;;;;;44.26;25.82;95269.03;5097263;28;20180;-60
2022/08/04 08:54:16;;;;;;;1999.90;999.90;;;;;;;44.15;26.45;95264.03;5097035;28;20191;-60
2022/08/04 08:56:57;;;;;;;1999.90;999.90;;;;;;;43.78;26.15;95269.00;5096922;28;20175;-66
2022/08/04 08:59:45;;;;;;;1999.90;999.90;;;;;;;43.59;26.32;95266.41;5097802;28;20262;-59
2022/08/04 09:02:48;;;;;;;1999.90;999.90;;;;;;;45.23;25.03;95271.66;5097897;28;20189;-62
2022/08/04 09:05:21;;;;;;;1999.90;999.90;;;;;;;45.16;24.98;95269.81;5096665;28;20264;-62
2022/08/04 09:08:00;;;;;;;1999.90;999.90;;;;;;;44.95;24.84;95278.75;5096893;28;20207;-64
2022/08/04 09:10:37;;;;;;;1999.90;999.90;;;;;;;45.47;23.91;95275.91;5096713;28;20202;-61
2022/08/04 09:13:44;;;;;;;1999.90;999.90;;;;;;;44.68;24.58;95278.66;5097435;28;20250;-61
2022/08/04 09:16:16;;;;;;;1999.90;999.90;;;;;;;44.98;24.21;95269.59;5096890;28;20286;-61
2022/08/04 09:18:44;;;;;;;1999.90;999.90;;;;;;;44.65;24.57;95271.25;5097301;28;20202;-63
2022/08/04 09:21:24;;;;;;;1999.90;999.90;;;;;;;43.72;25.51;95268.63;5096663;28;20187;-64
2022/08/04 09:24:04;;;;;;;1999.90;999.90;;;;;;;43.20;25.58;95265.41;5096584;28;20270;-67
2022/08/04 09:26:59;;;;;;;1999.90;999.90;;;;;;;41.14;27.45;95274.47;5096882;28;20183;-64
2022/08/04 09:29:50;;;;;;;1999.90;999.90;;;;;;;42.56;26.31;95272.72;5096917;28;20276;-60
2022/08/04 09:32:37;;;;;;;1999.90;999.90;;;;;;;42.62;26.89;95270.25;5097216;28;20188;-63
2022/08/04 09:35:36;;;;;;;1999.90;999.90;;;;;;;43.77;25.29;95264.59;5096833;28;20195;-63
2022/08/04 09:38:34;;;;;;;1999.90;999.90;;;;;;;43.65;25.07;95263.88;5096830;28;20199;-70
2022/08/04 09:41:29;;;;;;;1999.90;999.90;;;;;;;42.18;26.47;95278.03;5096815;28;20225;-71
2022/08/04 09:44:14;;;;;;;1999.90;999.90;;;;;;;42.81;26.35;95261.44;5096378;28;20237;-64
2022/08/04 09:46:46;;;;;;;1999.90;999.90;;;;;;;42.37;25.96;95269.31;5096505;28;20187;-72
2022/08/04 09:49:30;;;;;;;1999.90;999.90;;;;;;;41.46;26.80;95263.13;5096749;28;20187;-69
2022/08/04 09:52:10;;;;;;;1999.90;999.90;;;;;;;42.35;26.74;95252.69;5096538;28;20179;-59
2022/08/04 09:55:03;;;;;;;1999.90;999.90;;;;;;;44.00;25.81;95255.94;5096698;28;20195;-59
2022/08/04 09:57:54;;;;;;;1999.90;999.90;;;;;;;45.05;23.87;95254.09;5096981;28;20198;-62
2022/08/04 10:00:19;;;;;;;1999.90;999.90;;;;;;;45.78;22.65;95247.22;5096257;28;20233;-63
2022/08/04 10:02:54;;;;;;;1999.90;999.90;;;;;;;45.55;21.95;95259.00;5096080;28;20179;-61
2022/08/04 10:05:24;;;;;;;1999.90;999.90;;;;;;;45.32;22.07;95264.94;5096152;28;20175;-62
2022/08/04 10:08:54;;;;;;;1999.90;999.90;;;;;;;44.30;22.61;95257.75;5096374;28;20188;-63
2022/08/04 10:11:35;;;;;;;1999.90;999.90;;;;;;;43.05;23.87;95256.50;5021765;28;20201;-60
2022/08/04 10:14:19;;;;;;;1999.90;999.90;;;;;;;42.64;24.42;95253.19;5035156;28;20190;-59
2022/08/04 10:16:55;;;;;;;1999.90;999.90;;;;;;;43.08;24.48;95256.03;5088709;28;20192;-61
2022/08/04 10:19:26;;;;;;;1999.90;999.90;;;;;;;42.89;23.88;95253.31;5096010;28;20181;-63
2022/08/04 10:22:07;;;;;;;1999.90;999.90;;;;;;;42.90;24.63;95248.31;5098765;28;20179;-61
2022/08/04 10:24:58;;;;;;;1999.90;999.90;;;;;;;44.22;22.79;95245.00;5100051;28;20171;-64
2022/08/04 10:27:29;;;;;;;1999.90;999.90;;;;;;;44.38;21.52;95252.44;5099995;28;20215;-63
2022/08/04 10:30:02;;;;;;;1999.90;999.90;;;;;;;44.75;21.61;95254.53;5099897;28;20202;-60
2022/08/04 10:32:42;;;;;;;1999.90;999.90;;;;;;;44.22;21.63;95257.28;5099845;28;20252;-70
2022/08/04 10:35:22;;;;;;;1999.90;999.90;;;;;;;43.85;22.14;95247.84;5099736;28;20222;-66
2022/08/04 10:38:06;;;;;;;1999.90;999.90;;;;;;;44.08;21.93;95242.00;5099309;28;20233;-64
2022/08/04 10:40:44;;;;;;;1999.90;999.90;;;;;;;44.28;22.27;95243.19;5099104;28;20189;-61
2022/08/04 10:43:34;;;;;;;1999.90;999.90;;;;;;;43.48;22.60;95241.25;5099211;28;20248;-67
2022/08/04 10:46:15;;;;;;;1999.90;999.90;;;;;;;44.26;22.29;95243.09;5099530;28;20278;-68
2022/08/04 10:48:57;;;;;;;1999.90;999.90;;;;;;;44.50;22.03;95247.34;5099213;28;20188;-58
2022/08/04 10:51:46;;;;;;;1999.90;999.90;;;;;;;44.63;21.60;95243.06;5099435;28;20184;-60
2022/08/04 10:54:24;;;;;;;1999.90;999.90;;;;;;;44.87;21.27;95250.19;5099352;28;20271;-61
2022/08/04 10:56:55;;;;;;;1999.90;999.90;;;;;;;45.25;21.00;95240.03;5098887;28;20180;-61
2022/08/04 10:59:27;;;;;;;1999.90;999.90;;;;;;;44.28;22.30;95237.44;5099181;28;20271;-60
2022/08/04 11:01:59;;;;;;;1999.90;999.90;;;;;;;43.54;22.33;95241.63;5098923;28;20206;-61
2022/08/04 11:04:38;;;;;;;1999.90;999.90;;;;;;;44.82;21.32;95233.28;5099326;28;20172;-59
2022/08/04 11:07:04;;;;;;;1999.90;999.90;;;;;;;44.67;21.66;95231.00;5098861;28;20209;-66
2022/08/04 11:09:30;;;;;;;1999.90;999.90;;;;;;;44.32;22.10;95229.00;5098687;28;20204;-64
2022/08/04 11:12:04;;;;;;;1999.90;999.90;;;;;;;43.34;22.21;95234.63;5098504;28;20188;-60
2022/08/04 11:14:45;;;;;;;1999.90;999.90;;;;;;;42.91;22.71;95226.81;5099016;28;20210;-60
2022/08/04 11:17:19;;;;;;;1999.90;999.90;;;;;;;42.31;22.97;95235.19;5098831;28;20183;-60
2022/08/04 11:20:06;;;;;;;1999.90;999.90;;;;;;;44.16;21.79;95225.19;5098965;28;20187;-64
2022/08/04 11:22:38;;;;;;;1999.90;999.90;;;;;;;43.55;21.58;95228.72;5098730;28;20222;-62
2022/08/04 11:25:16;;;;;;;1999.90;999.90;;;;;;;42.48;22.88;95222.59;5098410;28;20183;-68
2022/08/04 11:28:10;;;;;;;1999.90;999.90;;;;;;;42.17;23.30;95237.09;5099051;28;20198;-64
2022/08/04 11:31:05;;;;;;;1999.90;999.90;;;;;;;43.16;22.07;95226.97;5099080;28;20194;-62
2022/08/04 11:33:42;;;;;;;1999.90;999.90;;;;;;;42.65;22.93;95222.28;5097658;28;20191;-62